createdAt,value
2018-03-15T00:01:07.449Z,99103.06
2018-03-15T00:03:34.844Z,99094.34
2018-03-15T00:06:02.229Z,99096.69
2018-03-15T00:08:29.640Z,99087.63
2018-03-15T00:10:57.026Z,99094.56
2018-03-15T00:13:24.417Z,99080.25
2018-03-15T00:15:51.822Z,99079.37
2018-03-15T00:18:19.195Z,99076.91
2018-03-15T00:20:46.595Z,99070.20
2018-03-15T00:23:13.980Z,99065.73
2018-03-15T00:25:41.361Z,99062.09
2018-03-15T00:28:08.754Z,99069.09
2018-03-15T00:30:36.146Z,99067.25
2018-03-15T00:33:03.521Z,99064.93
2018-03-15T00:35:30.978Z,99063.41
2018-03-15T00:37:58.348Z,99064.44
2018-03-15T00:40:25.729Z,99054.34
2018-03-15T00:42:53.122Z,99054.27
2018-03-15T00:45:20.502Z,99059.05
2018-03-15T00:47:47.889Z,99051.56
2018-03-15T00:50:15.293Z,99053.70
2018-03-15T00:52:42.673Z,99051.77
2018-03-15T00:55:10.057Z,99046.27
2018-03-15T00:57:37.488Z,99049.53
2018-03-15T01:00:05.000Z,99046.21
2018-03-15T01:02:32.373Z,99045.20
2018-03-15T01:05:02.521Z,99046.90
2018-03-15T01:07:29.925Z,99044.98
2018-03-15T01:09:57.329Z,99039.92
2018-03-15T01:12:24.722Z,99043.97
2018-03-15T01:14:52.105Z,99043.47
2018-03-15T01:17:19.489Z,99041.14
2018-03-15T01:19:46.870Z,99039.20
2018-03-15T01:22:14.249Z,99038.98
2018-03-15T01:24:41.641Z,99037.28
2018-03-15T01:27:09.026Z,99025.17
2018-03-15T01:29:36.409Z,99028.75
2018-03-15T01:32:03.793Z,99018.27
2018-03-15T01:34:31.205Z,99019.17
2018-03-15T01:36:58.597Z,99014.62
2018-03-15T01:39:25.977Z,99016.96
2018-03-15T01:41:53.373Z,99013.11
2018-03-15T01:44:20.756Z,99002.73
2018-03-15T01:46:48.152Z,99004.88
2018-03-15T01:49:15.553Z,98997.16
2018-03-15T01:51:42.938Z,98992.38
2018-03-15T01:54:10.333Z,98988.91
2018-03-15T01:56:37.713Z,98987.62
2018-03-15T01:59:05.098Z,98985.28
2018-03-15T02:01:32.505Z,98971.69
2018-03-15T02:03:59.889Z,98966.09
2018-03-15T02:06:27.268Z,98970.16
2018-03-15T02:08:54.662Z,98964.08
2018-03-15T02:11:22.061Z,98961.20
2018-03-15T02:13:49.457Z,98960.92
2018-03-15T02:16:16.842Z,98951.29
2018-03-15T02:18:44.224Z,98942.55
2018-03-15T02:21:11.616Z,98947.52
2018-03-15T02:23:39.006Z,98936.98
2018-03-15T02:26:06.413Z,98934.02
2018-03-15T02:28:33.794Z,98924.46
2018-03-15T02:31:01.193Z,98918.91
2018-03-15T02:33:28.590Z,98915.42
2018-03-15T02:35:55.980Z,98911.04
2018-03-15T02:38:23.369Z,98906.17
2018-03-15T02:40:50.761Z,98900.16
2018-03-15T02:43:18.144Z,98898.17
2018-03-15T02:45:45.538Z,98889.89
2018-03-15T02:48:12.921Z,98887.36
2018-03-15T02:50:40.348Z,98890.83
2018-03-15T02:53:07.751Z,98879.98
2018-03-15T02:55:35.126Z,98880.89
2018-03-15T02:58:02.548Z,98873.28
2018-03-15T03:00:29.937Z,98876.12
2018-03-15T03:02:57.344Z,98874.91
2018-03-15T03:05:24.722Z,98872.28
2018-03-15T03:07:52.102Z,98877.44
2018-03-15T03:10:19.493Z,98876.83
2018-03-15T03:12:46.878Z,98874.91
2018-03-15T03:15:14.269Z,98878.14
2018-03-15T03:17:41.653Z,98875.82
2018-03-15T03:20:09.037Z,98870.23
2018-03-15T03:22:36.440Z,98864.06
2018-03-15T03:25:03.824Z,98865.80
2018-03-15T03:27:31.237Z,98860.92
2018-03-15T03:29:58.614Z,98845.58
2018-03-15T03:32:25.998Z,98842.64
2018-03-15T03:34:53.380Z,98848.50
2018-03-15T03:37:20.779Z,98842.02
2018-03-15T03:39:48.174Z,98836.14
2018-03-15T03:42:15.565Z,98843.95
2018-03-15T03:44:42.937Z,98831.96
2018-03-15T03:47:10.326Z,98837.84
2018-03-15T03:49:37.710Z,98830.94
2018-03-15T03:52:05.117Z,98836.35
2018-03-15T03:54:32.501Z,98827.94
2018-03-15T03:56:59.885Z,98823.89
2018-03-15T03:59:27.273Z,98814.94
2018-03-15T04:01:54.654Z,98818.72
2018-03-15T04:04:22.054Z,98811.91
2018-03-15T04:06:49.462Z,98803.60
2018-03-15T04:09:16.861Z,98813.49
2018-03-15T04:11:44.264Z,98806.70
2018-03-15T04:14:11.652Z,98797.17
2018-03-15T04:16:39.056Z,98783.25
2018-03-15T04:19:06.466Z,98782.64
2018-03-15T04:21:33.876Z,98775.86
2018-03-15T04:24:01.557Z,98758.58
2018-03-15T04:26:28.957Z,98755.83
2018-03-15T04:28:56.366Z,98760.35
2018-03-15T04:31:23.749Z,98755.99
2018-03-15T04:33:51.153Z,98757.46
2018-03-15T04:36:18.540Z,98755.07
2018-03-15T04:38:45.948Z,98753.02
2018-03-15T04:41:13.368Z,98739.33
2018-03-15T04:43:40.772Z,98747.23
2018-03-15T04:46:08.172Z,98747.03
2018-03-15T04:48:35.583Z,98745.73
2018-03-15T04:51:02.981Z,98743.72
2018-03-15T04:53:30.425Z,98738.66
2018-03-15T04:55:57.814Z,98731.25
2018-03-15T04:58:25.208Z,98719.89
2018-03-15T05:00:52.598Z,98715.54
2018-03-15T05:03:20.012Z,98713.69
2018-03-15T05:05:47.405Z,98701.05
2018-03-15T05:08:14.790Z,98699.59
2018-03-15T05:10:42.208Z,98685.50
2018-03-15T05:13:09.615Z,98687.41
2018-03-15T05:15:37.017Z,98676.13
2018-03-15T05:18:04.413Z,98686.91
2018-03-15T05:20:31.809Z,98685.32
2018-03-15T05:22:59.204Z,98675.04
2018-03-15T05:25:26.587Z,98663.58
2018-03-15T05:27:53.968Z,98672.80
2018-03-15T05:30:21.409Z,98663.06
2018-03-15T05:32:48.816Z,98668.60
2018-03-15T05:35:16.189Z,98667.69
2018-03-15T05:37:45.550Z,98666.66
2018-03-15T05:40:12.924Z,98671.71
2018-03-15T05:42:40.322Z,98667.91
2018-03-15T05:45:07.705Z,98672.28
2018-03-15T05:47:35.122Z,98669.73
2018-03-15T05:50:02.501Z,98671.73
2018-03-15T05:52:29.953Z,98667.75
2018-03-15T05:54:58.529Z,98664.72
2018-03-15T05:57:25.929Z,98665.50
2018-03-15T05:59:53.701Z,98659.37
2018-03-15T06:02:22.109Z,98656.69
2018-03-15T06:04:49.563Z,98655.05
2018-03-15T06:07:16.976Z,98648.07
2018-03-15T06:09:44.357Z,98643.83
2018-03-15T06:12:11.754Z,98638.66
2018-03-15T06:14:39.150Z,98648.61
2018-03-15T06:17:06.537Z,98644.69
2018-03-15T06:19:33.958Z,98647.80
2018-03-15T06:22:01.349Z,98633.80
2018-03-15T06:24:28.737Z,98640.96
2018-03-15T06:26:56.125Z,98636.19
2018-03-15T06:29:23.505Z,98634.33
2018-03-15T06:31:50.906Z,98637.80
2018-03-15T06:34:18.293Z,98650.56
2018-03-15T06:36:45.677Z,98653.06
2018-03-15T06:39:13.069Z,98658.34
2018-03-15T06:41:40.458Z,98674.44
2018-03-15T06:44:07.852Z,98665.04
2018-03-15T06:46:35.245Z,98670.13
2018-03-15T06:49:02.637Z,98661.14
2018-03-15T06:51:30.040Z,98650.41
2018-03-15T06:53:57.416Z,98654.80
2018-03-15T06:56:24.813Z,98649.00
2018-03-15T06:58:52.202Z,98638.94
2018-03-15T07:01:19.580Z,98635.61
2018-03-15T07:03:46.983Z,98631.00
2018-03-15T07:06:14.370Z,98635.75
2018-03-15T07:08:42.611Z,98626.20
2018-03-15T07:11:09.990Z,98634.14
2018-03-15T07:13:37.373Z,98630.17
2018-03-15T07:16:04.764Z,98621.20
2018-03-15T07:18:32.256Z,98624.56
2018-03-15T07:20:59.653Z,98630.13
2018-03-15T07:23:27.037Z,98628.73
2018-03-15T07:25:54.422Z,98632.82
2018-03-15T07:28:21.814Z,98624.64
2018-03-15T07:30:49.200Z,98624.16
2018-03-15T07:33:16.614Z,98627.17
2018-03-15T07:35:44.006Z,98626.80
2018-03-15T07:38:11.386Z,98625.11
2018-03-15T07:40:38.777Z,98626.02
2018-03-15T07:43:06.179Z,98622.82
2018-03-15T07:45:33.562Z,98619.53
2018-03-15T07:48:00.949Z,98623.89
2018-03-15T07:50:28.325Z,98612.41
2018-03-15T07:52:55.714Z,98610.41
2018-03-15T07:55:23.306Z,98607.48
2018-03-15T07:57:50.714Z,98601.94
2018-03-15T08:00:18.100Z,98610.93
2018-03-15T08:02:45.495Z,98614.17
2018-03-15T08:05:12.877Z,98624.03
2018-03-15T08:07:40.265Z,98612.64
2018-03-15T08:10:07.657Z,98623.73
2018-03-15T08:12:35.044Z,98615.66
2018-03-15T08:15:02.427Z,98611.87
2018-03-15T08:17:29.822Z,98606.44
2018-03-15T08:19:57.223Z,98610.52
2018-03-15T08:22:25.415Z,98604.95
2018-03-15T08:24:54.391Z,98607.31
2018-03-15T08:27:23.984Z,98596.86
2018-03-15T08:29:54.564Z,98592.95
2018-03-15T08:32:21.978Z,98588.22
2018-03-15T08:34:50.413Z,98588.27
2018-03-15T08:37:17.800Z,98582.08
2018-03-15T08:39:45.270Z,98585.56
2018-03-15T08:42:12.663Z,98588.70
2018-03-15T08:44:41.004Z,98589.02
2018-03-15T08:47:08.410Z,98585.48
2018-03-15T08:49:35.797Z,98576.84
2018-03-15T08:52:03.184Z,98585.32
2018-03-15T08:54:30.574Z,98569.83
2018-03-15T08:56:57.995Z,98568.98
2018-03-15T08:59:25.380Z,98559.25
2018-03-15T09:01:52.753Z,98558.78
2018-03-15T09:04:20.153Z,98561.14
2018-03-15T09:06:47.552Z,98562.66
2018-03-15T09:09:14.986Z,98556.38
2018-03-15T09:11:42.341Z,98549.85
2018-03-15T09:14:09.738Z,98547.69
2018-03-15T09:16:37.126Z,98558.44
2018-03-15T09:19:04.522Z,98546.96
2018-03-15T09:21:31.961Z,98533.66
2018-03-15T09:23:59.314Z,98538.69
2018-03-15T09:26:26.718Z,98540.30
2018-03-15T09:28:54.101Z,98519.45
2018-03-15T09:31:21.501Z,98519.69
2018-03-15T09:33:48.898Z,98515.59
2018-03-15T09:36:16.297Z,98513.67
2018-03-15T09:38:43.683Z,98504.58
2018-03-15T09:41:11.070Z,98511.77
2018-03-15T09:43:38.466Z,98511.72
2018-03-15T09:46:05.883Z,98506.20
2018-03-15T09:48:33.262Z,98497.78
2018-03-15T09:51:00.661Z,98496.93
2018-03-15T09:53:28.055Z,98497.13
2018-03-15T09:55:55.834Z,98502.23
2018-03-15T09:58:23.243Z,98496.47
2018-03-15T10:00:51.014Z,98494.88
2018-03-15T10:03:18.409Z,98495.80
2018-03-15T10:05:45.854Z,98494.57
2018-03-15T10:08:13.212Z,98492.56
2018-03-15T10:10:40.602Z,98490.78
2018-03-15T10:13:08.001Z,98490.59
2018-03-15T10:15:35.399Z,98488.88
2018-03-15T10:18:02.785Z,98481.98
2018-03-15T10:20:30.182Z,98483.36
2018-03-15T10:22:57.574Z,98486.81
2018-03-15T10:25:26.392Z,98484.13
2018-03-15T10:27:52.354Z,98485.36
2018-03-15T10:30:19.766Z,98479.74
2018-03-15T10:35:47.451Z,98477.79
2018-03-15T10:38:14.842Z,98473.21
2018-03-15T10:40:42.249Z,98467.52
2018-03-15T10:43:09.637Z,98468.81
2018-03-15T10:45:37.066Z,98470.67
2018-03-15T10:48:04.519Z,98473.62
2018-03-15T10:50:31.881Z,98470.57
2018-03-15T10:52:59.315Z,98459.88
2018-03-15T10:55:26.728Z,98458.70
2018-03-15T10:57:54.460Z,98460.30
2018-03-15T11:03:27.064Z,98454.20
2018-03-15T11:06:01.016Z,98445.19
2018-03-15T11:08:35.855Z,98445.36
2018-03-15T11:11:03.286Z,98444.22
2018-03-15T11:13:30.768Z,98435.80
2018-03-15T11:15:58.434Z,98432.80
2018-03-15T11:18:25.830Z,98427.53
2018-03-15T11:20:53.218Z,98424.44
2018-03-15T11:23:20.637Z,98414.63
2018-03-15T11:25:48.026Z,98423.13
2018-03-15T11:28:15.433Z,98421.65
2018-03-15T11:30:42.818Z,98424.02
2018-03-15T11:33:10.233Z,98423.86
2018-03-15T11:35:37.622Z,98428.09
2018-03-15T11:38:05.006Z,98421.08
2018-03-15T11:40:32.409Z,98424.67
2018-03-15T11:42:59.818Z,98427.83
2018-03-15T11:45:27.242Z,98424.38
2018-03-15T11:47:54.660Z,98415.20
2018-03-15T11:50:22.077Z,98413.55
2018-03-15T11:52:49.458Z,98405.05
2018-03-15T11:55:16.907Z,98400.45
2018-03-15T11:57:44.254Z,98410.09
2018-03-15T12:00:11.688Z,98404.73
2018-03-15T12:02:39.133Z,98406.91
2018-03-15T12:05:06.522Z,98408.16
2018-03-15T12:07:33.941Z,98408.39
2018-03-15T12:10:01.314Z,98409.95
2018-03-15T12:12:28.720Z,98404.33
2018-03-15T12:14:56.122Z,98401.24
2018-03-15T12:17:23.513Z,98396.23
2018-03-15T12:19:50.922Z,98396.92
2018-03-15T12:22:18.331Z,98392.88
2018-03-15T12:24:46.006Z,98394.56
2018-03-15T12:27:13.467Z,98382.75
2018-03-15T12:29:40.849Z,98380.74
2018-03-15T12:32:08.238Z,98378.89
2018-03-15T12:34:35.665Z,98371.36
2018-03-15T12:37:03.085Z,98370.41
2018-03-15T12:39:30.470Z,98371.33
2018-03-15T12:41:57.874Z,98370.16
2018-03-15T12:44:25.273Z,98361.23
2018-03-15T12:46:52.720Z,98363.19
2018-03-15T12:49:20.135Z,98360.27
2018-03-15T12:51:47.531Z,98354.66
2018-03-15T12:54:14.941Z,98356.57
2018-03-15T12:56:42.338Z,98350.33
2018-03-15T12:59:09.762Z,98347.34
2018-03-15T13:01:37.165Z,98349.66
2018-03-15T13:04:04.585Z,98340.27
2018-03-15T13:06:31.974Z,98338.02
2018-03-15T13:08:59.381Z,98338.28
2018-03-15T13:11:26.769Z,98340.44
2018-03-15T13:13:54.421Z,98332.46
2018-03-15T13:16:21.870Z,98337.55
2018-03-15T13:18:49.257Z,98333.08
2018-03-15T13:21:16.650Z,98331.58
2018-03-15T13:23:44.090Z,98322.11
2018-03-15T13:26:11.463Z,98321.75
2018-03-15T13:28:38.865Z,98314.34
2018-03-15T13:31:06.250Z,98322.41
2018-03-15T13:33:33.685Z,98315.86
2018-03-15T13:36:01.084Z,98313.03
2018-03-15T13:38:28.473Z,98318.28
2018-03-15T13:40:55.866Z,98311.50
2018-03-15T13:43:23.279Z,98305.93
2018-03-15T13:45:50.678Z,98311.61
2018-03-15T13:48:18.118Z,98312.91
2018-03-15T13:50:45.626Z,98317.16
2018-03-15T13:53:13.016Z,98318.23
2018-03-15T13:55:40.426Z,98319.16
2018-03-15T13:58:07.839Z,98320.61
2018-03-15T14:00:35.266Z,98323.30
2018-03-15T14:03:02.664Z,98324.59
2018-03-15T14:05:30.045Z,98321.02
2018-03-15T14:07:57.482Z,98332.14
2018-03-15T14:10:24.882Z,98326.45
2018-03-15T14:12:52.262Z,98321.09
2018-03-15T14:15:19.660Z,98319.88
2018-03-15T14:17:47.072Z,98331.21
2018-03-15T14:20:14.438Z,98321.80
2018-03-15T14:22:41.837Z,98322.47
2018-03-15T14:25:09.229Z,98333.48
2018-03-15T14:27:36.630Z,98326.70
2018-03-15T14:30:04.018Z,98317.37
2018-03-15T14:32:31.410Z,98317.67
2018-03-15T14:34:58.815Z,98312.98
2018-03-15T14:37:26.198Z,98311.78
2018-03-15T14:39:53.603Z,98304.52
2018-03-15T14:42:21.002Z,98300.03
2018-03-15T14:44:48.407Z,98302.33
2018-03-15T14:47:15.798Z,98297.31
2018-03-15T14:49:43.189Z,98284.89
2018-03-15T14:52:10.589Z,98291.73
2018-03-15T14:54:37.977Z,98281.70
2018-03-15T14:57:05.369Z,98285.22
2018-03-15T14:59:32.776Z,98287.51
2018-03-15T15:02:00.165Z,98277.72
2018-03-15T15:04:27.938Z,98273.27
2018-03-15T15:06:55.334Z,98272.60
2018-03-15T15:09:22.718Z,98277.02
2018-03-15T15:11:50.114Z,98281.11
2018-03-15T15:14:17.506Z,98280.67
2018-03-15T15:16:44.915Z,98294.97
2018-03-15T15:19:12.342Z,98291.55
2018-03-15T15:21:39.729Z,98297.42
2018-03-15T15:24:07.474Z,98304.38
2018-03-15T15:26:34.867Z,98296.34
2018-03-15T15:29:02.266Z,98311.73
2018-03-15T15:31:29.650Z,98309.58
2018-03-15T15:33:57.108Z,98312.26
2018-03-15T15:36:24.496Z,98315.23
2018-03-15T15:38:51.886Z,98317.13
2018-03-15T15:41:19.285Z,98317.80
2018-03-15T15:43:46.679Z,98321.73
2018-03-15T15:46:14.070Z,98324.55
2018-03-15T15:48:41.472Z,98324.32
2018-03-15T15:51:08.876Z,98323.66
2018-03-15T15:53:36.326Z,98321.82
2018-03-15T15:56:03.782Z,98322.37
2018-03-15T15:58:31.166Z,98323.98
2018-03-15T16:00:58.558Z,98324.45
2018-03-15T16:03:25.960Z,98323.27
2018-03-15T16:05:53.345Z,98317.65
2018-03-15T16:08:20.753Z,98327.27
2018-03-15T16:10:48.141Z,98328.90
2018-03-15T16:13:15.573Z,98331.13
2018-03-15T16:15:43.035Z,98336.08
2018-03-15T16:18:10.366Z,98342.64
2018-03-15T16:20:37.825Z,98339.81
2018-03-15T16:23:05.150Z,98332.61
2018-03-15T16:25:32.559Z,98342.36
2018-03-15T16:27:59.950Z,98340.37
2018-03-15T16:30:27.351Z,98347.56
2018-03-15T16:32:54.786Z,98341.16
2018-03-15T16:35:22.176Z,98346.25
2018-03-15T16:37:49.563Z,98354.78
2018-03-15T16:40:16.955Z,98356.94
2018-03-15T16:42:44.354Z,98360.12
2018-03-15T16:45:11.750Z,98354.51
2018-03-15T16:47:39.129Z,98354.25
2018-03-15T16:50:06.617Z,98360.25
2018-03-15T16:52:34.018Z,98361.45
2018-03-15T16:55:01.422Z,98373.22
2018-03-15T16:57:28.822Z,98368.52
2018-03-15T16:59:56.593Z,98367.86
2018-03-15T17:02:23.994Z,98366.92
2018-03-15T17:04:51.374Z,98371.33
2018-03-15T17:07:18.774Z,98373.33
2018-03-15T17:09:46.193Z,98361.97
2018-03-15T17:12:13.598Z,98362.62
2018-03-15T17:14:40.993Z,98361.17
2018-03-15T17:17:08.393Z,98363.31
2018-03-15T17:19:35.782Z,98354.61
2018-03-15T17:22:03.177Z,98355.78
2018-03-15T17:24:30.570Z,98361.25
2018-03-15T17:26:57.961Z,98353.80
2018-03-15T17:29:25.695Z,98358.16
2018-03-15T17:31:53.086Z,98353.48
2018-03-15T17:34:20.778Z,98362.95
2018-03-15T17:36:48.165Z,98360.84
2018-03-15T17:39:15.557Z,98358.68
2018-03-15T17:41:42.958Z,98375.12
2018-03-15T17:44:10.361Z,98381.62
2018-03-15T17:46:37.763Z,98391.38
2018-03-15T17:49:05.149Z,98396.95
2018-03-15T17:51:32.573Z,98407.20
2018-03-15T17:53:59.974Z,98407.08
2018-03-15T17:56:28.371Z,98414.67
2018-03-15T17:58:55.762Z,98421.20
2018-03-15T18:01:23.151Z,98422.02
2018-03-15T18:03:50.546Z,98426.14
2018-03-15T18:06:17.942Z,98433.73
2018-03-15T18:08:46.301Z,98435.20
2018-03-15T18:11:13.693Z,98433.85
2018-03-15T18:13:41.093Z,98435.17
2018-03-15T18:16:08.486Z,98435.02
2018-03-15T18:18:35.878Z,98430.34
2018-03-15T18:21:03.286Z,98441.86
2018-03-15T18:23:30.661Z,98441.16
2018-03-15T18:25:58.398Z,98443.89
2018-03-15T18:28:25.789Z,98441.73
2018-03-15T18:30:54.198Z,98442.34
2018-03-15T18:33:21.601Z,98447.13
2018-03-15T18:35:48.988Z,98447.24
2018-03-15T18:38:16.393Z,98453.66
2018-03-15T18:40:43.786Z,98461.09
2018-03-15T18:43:11.189Z,98463.06
2018-03-15T18:45:38.578Z,98462.03
2018-03-15T18:48:05.974Z,98468.15
2018-03-15T18:50:33.372Z,98477.70
2018-03-15T18:53:01.722Z,98484.33
2018-03-15T18:55:29.130Z,98487.66
2018-03-15T18:57:56.522Z,98492.11
2018-03-15T19:00:23.926Z,98496.32
2018-03-15T19:02:51.327Z,98491.94
2018-03-15T19:05:18.717Z,98499.77
2018-03-15T19:07:46.176Z,98497.88
2018-03-15T19:10:13.514Z,98493.05
2018-03-15T19:12:40.934Z,98492.46
2018-03-15T19:15:08.326Z,98490.53
2018-03-15T19:17:35.727Z,98485.55
2018-03-15T19:20:03.130Z,98490.98
2018-03-15T19:22:30.536Z,98489.57
2018-03-15T19:24:57.911Z,98484.65
2018-03-15T19:27:25.314Z,98488.44
2018-03-15T19:29:52.700Z,98477.53
2018-03-15T19:32:21.046Z,98478.17
2018-03-15T19:34:48.430Z,98477.13
2018-03-15T19:37:15.833Z,98475.98
2018-03-15T19:39:43.213Z,98469.31
2018-03-15T19:42:10.598Z,98473.32
2018-03-15T19:44:37.989Z,98475.55
2018-03-15T19:47:05.385Z,98469.14
2018-03-15T19:49:32.785Z,98473.62
2018-03-15T19:52:00.167Z,98474.42
2018-03-15T19:54:27.558Z,98471.36
2018-03-15T19:56:54.953Z,98469.48
2018-03-15T19:59:22.341Z,98472.63
2018-03-15T20:01:49.739Z,98472.78
2018-03-15T20:04:17.134Z,98470.80
2018-03-15T20:06:44.518Z,98470.27
2018-03-15T20:09:11.911Z,98468.32
2018-03-15T20:11:39.297Z,98469.03
2018-03-15T20:14:06.702Z,98463.94
2018-03-15T20:16:34.088Z,98459.26
2018-03-15T20:19:06.990Z,98459.19
2018-03-15T20:21:34.428Z,98451.95
2018-03-15T20:24:07.221Z,98453.91
2018-03-15T20:26:34.613Z,98457.59
2018-03-15T20:29:01.998Z,98452.02
2018-03-15T20:31:29.399Z,98453.90
2018-03-15T20:34:03.013Z,98458.57
2018-03-15T20:36:30.729Z,98461.87
2018-03-15T20:38:58.134Z,98457.62
2018-03-15T20:41:27.283Z,98467.02
2018-03-15T20:43:54.679Z,98470.89
2018-03-15T20:49:24.558Z,98469.74
2018-03-15T20:51:51.970Z,98470.72
2018-03-15T20:54:19.370Z,98463.05
2018-03-15T20:56:46.778Z,98468.85
2018-03-15T20:59:14.166Z,98465.49
2018-03-15T21:01:41.563Z,98461.23
2018-03-15T21:04:08.953Z,98461.30
2018-03-15T21:06:36.353Z,98453.43
2018-03-15T21:09:03.762Z,98448.62
2018-03-15T21:11:31.157Z,98449.56
2018-03-15T21:13:58.533Z,98453.36
2018-03-15T21:16:25.935Z,98443.98
2018-03-15T21:18:53.322Z,98448.53
2018-03-15T21:21:20.710Z,98443.50
2018-03-15T21:23:48.108Z,98445.23
2018-03-15T21:26:15.503Z,98434.23
2018-03-15T21:28:42.873Z,98432.88
2018-03-15T21:31:10.347Z,98427.09
2018-03-15T21:33:37.737Z,98440.15
2018-03-15T21:36:05.174Z,98435.27
2018-03-15T21:38:32.658Z,98447.19
2018-03-15T21:41:00.051Z,98443.02
2018-03-15T21:43:27.450Z,98450.14
2018-03-15T21:45:54.842Z,98453.41
2018-03-15T21:48:22.230Z,98457.25
2018-03-15T21:50:49.620Z,98470.60
2018-03-15T21:53:17.005Z,98467.80
2018-03-15T21:55:44.410Z,98462.91
2018-03-15T21:58:11.868Z,98459.91
2018-03-15T22:00:39.301Z,98470.71
2018-03-15T22:03:06.706Z,98461.98
2018-03-15T22:05:34.097Z,98464.73
2018-03-15T22:08:01.492Z,98469.38
2018-03-15T22:10:28.873Z,98460.38
2018-03-15T22:12:56.294Z,98461.37
2018-03-15T22:15:23.676Z,98469.80
2018-03-15T22:17:51.066Z,98463.47
2018-03-15T22:20:18.458Z,98471.50
2018-03-15T22:22:45.842Z,98471.69
2018-03-15T22:25:13.254Z,98472.38
2018-03-15T22:27:40.649Z,98475.59
2018-03-15T22:30:08.549Z,98479.52
2018-03-15T22:32:35.946Z,98479.32
2018-03-15T22:35:03.385Z,98481.27
2018-03-15T22:37:30.802Z,98479.11
2018-03-15T22:39:58.182Z,98479.11
2018-03-15T22:42:25.566Z,98480.62
2018-03-15T22:44:52.963Z,98483.38
2018-03-15T22:47:20.346Z,98478.63
2018-03-15T22:49:47.752Z,98477.94
2018-03-15T22:52:15.130Z,98474.97
2018-03-15T22:54:42.516Z,98479.27
2018-03-15T22:57:09.901Z,98476.19
2018-03-15T22:59:37.287Z,98485.80
2018-03-15T23:02:04.682Z,98484.90
2018-03-15T23:04:32.074Z,98485.27
2018-03-15T23:06:59.461Z,98481.98
2018-03-15T23:09:26.869Z,98491.25
2018-03-15T23:11:54.254Z,98481.70
2018-03-15T23:14:21.654Z,98487.98
2018-03-15T23:16:49.035Z,98492.72
2018-03-15T23:19:16.421Z,98488.41
2018-03-15T23:21:43.813Z,98490.48
2018-03-15T23:24:11.206Z,98492.30
2018-03-15T23:26:38.604Z,98488.95
2018-03-15T23:29:05.981Z,98491.83
2018-03-15T23:31:33.369Z,98493.23
2018-03-15T23:34:00.761Z,98485.11
2018-03-15T23:36:28.145Z,98485.32
2018-03-15T23:38:55.543Z,98485.20
2018-03-15T23:41:22.923Z,98488.12
2018-03-15T23:43:50.304Z,98482.88
2018-03-15T23:46:17.701Z,98483.51
2018-03-15T23:48:45.077Z,98488.62
2018-03-15T23:51:12.473Z,98488.68
2018-03-15T23:53:39.857Z,98496.82
2018-03-15T23:56:07.245Z,98494.90
2018-03-15T23:58:34.637Z,98504.03
